Terminal Aerodrome Forecast
Issued by NWS Grand Forks, ND

Home | Current Version | Previous Version | Text Only | Print | Product List | Glossary On
Versions: 1 2 3 4 5 6 7 8 9 10 11 12 13 14 15 16 17 18 19
557
FTUS43 KFGF 050539
TAFFAR
TAF
KFAR 050539Z 0506/0606 26007KT P6SM SCT015
     FM051700 14006KT P6SM BKN025
     FM051900 18004KT P6SM OVC008
     FM052100 23006KT 3/4SM -SN OVC008
     FM060100 26015KT P6SM OVC010=

USA.gov is the U.S. government's official web portal to all federal, state and local government web resources and services.